Aviation Digital Data Service (ADDS)

Output produced by METARs form (1558 UTC 25 April 2015)
found at http://aviationweather.gov/adds/metars/
 
KPHX 251445Z 2515/2612 11007KT P6SM FEW070 BKN200 
     FM251900 21014G22KT P6SM SCT060 BKN090 
     FM252300 26019G30KT P6SM SCT050 BKN070 
     FM260600 27015G28KT P6SM VCSH SCT050 OVC070 
     FM260900 25014KT P6SM -TSRA SCT030 BKN040 OVC060CB